createdAt,value
2022-11-19T00:03:48.689Z,94.28
2022-11-19T00:08:45.857Z,94.28
2022-11-19T00:13:44.780Z,93.72
2022-11-19T00:18:44.742Z,93.29
2022-11-19T00:23:44.714Z,93.70
2022-11-19T00:28:44.836Z,93.70
2022-11-19T00:33:44.804Z,93.23
2022-11-19T00:38:44.516Z,93.58
2022-11-19T00:43:44.516Z,93.27
2022-11-19T00:48:44.385Z,93.06
2022-11-19T00:53:44.444Z,93.31
2022-11-19T00:58:44.361Z,93.00
2022-11-19T01:03:44.260Z,93.52
2022-11-19T01:08:44.200Z,93.00
2022-11-19T01:13:44.175Z,93.15
2022-11-19T01:18:44.085Z,93.35
2022-11-19T01:23:44.178Z,93.31
2022-11-19T01:28:52.968Z,92.43
2022-11-19T01:33:43.885Z,92.84
2022-11-19T01:38:43.902Z,92.63
2022-11-19T01:43:43.874Z,92.47
2022-11-19T01:48:43.810Z,91.95
2022-11-19T01:53:43.732Z,92.10
2022-11-19T01:58:43.791Z,92.20
2022-11-19T02:03:43.602Z,92.10
2022-11-19T02:08:43.541Z,92.51
2022-11-19T02:13:43.530Z,91.89
2022-11-19T02:18:43.420Z,92.10
2022-11-19T02:23:46.382Z,92.35
2022-11-19T02:28:43.331Z,92.51
2022-11-19T02:33:43.303Z,92.97
2022-11-19T02:38:43.335Z,92.72
2022-11-19T02:43:43.161Z,91.72
2022-11-19T02:48:43.272Z,91.45
2022-11-19T02:53:45.213Z,91.70
2022-11-19T02:58:43.025Z,91.70
2022-11-19T03:03:42.993Z,91.49
2022-11-19T03:08:42.914Z,91.86
2022-11-19T03:13:42.854Z,90.77
2022-11-19T03:18:42.802Z,91.80
2022-11-19T03:23:42.932Z,91.28
2022-11-19T03:28:42.908Z,90.91
2022-11-19T03:33:42.818Z,91.22
2022-11-19T03:38:42.610Z,91.08
2022-11-19T03:43:42.531Z,90.97
2022-11-19T03:48:42.486Z,91.24
2022-11-19T03:53:42.477Z,90.77
2022-11-19T03:58:42.379Z,91.14
2022-11-19T04:03:42.302Z,90.70
2022-11-19T04:08:42.276Z,90.75
2022-11-19T04:13:42.266Z,90.60
2022-11-19T04:18:42.226Z,90.25
2022-11-19T04:23:42.255Z,90.25
2022-11-19T04:28:42.037Z,90.39
2022-11-19T04:33:42.048Z,90.50
2022-11-19T04:38:41.964Z,90.39
2022-11-19T04:43:42.069Z,90.81
2022-11-19T04:48:41.865Z,90.19
2022-11-19T04:53:41.925Z,90.08
2022-11-19T04:58:41.738Z,90.19
2022-11-19T05:03:41.678Z,90.08
2022-11-19T05:08:41.650Z,90.29
2022-11-19T05:13:41.516Z,90.08
2022-11-19T05:18:41.574Z,90.70
2022-11-19T05:23:41.410Z,90.04
2022-11-19T05:28:42.458Z,90.25
2022-11-19T05:33:41.509Z,89.98
2022-11-19T05:38:41.416Z,89.46
2022-11-19T05:43:41.266Z,89.77
2022-11-19T05:48:41.361Z,88.94
2022-11-19T05:53:41.136Z,89.60
2022-11-19T05:58:41.044Z,89.18
2022-11-19T06:03:40.994Z,89.29
2022-11-19T06:08:40.913Z,88.50
2022-11-19T06:13:40.915Z,89.54
2022-11-19T06:18:40.885Z,89.43
2022-11-19T06:23:41.091Z,89.23
2022-11-19T06:28:40.817Z,89.48
2022-11-19T06:33:40.806Z,90.20
2022-11-19T06:38:40.762Z,89.85
2022-11-19T06:43:40.708Z,89.75
2022-11-19T06:48:41.697Z,89.79
2022-11-19T06:53:40.544Z,89.79
2022-11-19T06:58:40.636Z,88.54
2022-11-19T07:03:40.557Z,89.10
2022-11-19T07:08:40.518Z,89.23
2022-11-19T07:13:40.387Z,88.85
2022-11-19T07:18:40.485Z,89.54
2022-11-19T07:23:41.362Z,89.37
2022-11-19T07:28:41.445Z,89.02
2022-11-19T07:34:51.351Z,87.66
2022-11-19T07:39:51.317Z,87.94
2022-11-19T07:44:54.793Z,86.83
2022-11-19T07:49:51.194Z,86.63
2022-11-19T07:54:51.238Z,87.73
2022-11-19T07:59:51.160Z,86.38
2022-11-19T08:04:51.095Z,86.59
2022-11-19T08:09:50.995Z,86.44
2022-11-19T08:14:50.962Z,85.80
2022-11-19T08:19:51.063Z,86.73
2022-11-19T08:24:50.866Z,85.38
2022-11-19T08:29:50.828Z,85.49
2022-11-19T08:34:50.792Z,85.28
2022-11-19T08:39:51.768Z,84.86
2022-11-19T08:44:50.625Z,85.21
2022-11-19T08:49:50.559Z,85.73
2022-11-19T08:54:50.584Z,86.63
2022-11-19T08:59:50.523Z,86.15
2022-11-19T09:04:50.469Z,85.73
2022-11-19T09:09:50.437Z,86.75
2022-11-19T09:14:50.367Z,86.40
2022-11-19T09:19:50.230Z,87.65
2022-11-19T09:24:50.182Z,87.37
2022-11-19T09:29:50.136Z,87.62
2022-11-19T09:34:50.308Z,88.42
2022-11-19T09:39:50.181Z,88.35
2022-11-19T09:44:51.134Z,88.76
2022-11-19T09:49:49.935Z,89.35
2022-11-19T09:54:49.902Z,89.00
2022-11-19T09:59:53.300Z,88.31
2022-11-19T10:04:49.765Z,87.85
2022-11-19T10:09:49.778Z,87.52
2022-11-19T10:14:49.667Z,88.20
2022-11-19T10:19:49.538Z,87.06
2022-11-19T10:24:50.582Z,87.65
2022-11-19T10:29:49.564Z,86.08
2022-11-19T10:34:49.417Z,84.66
2022-11-19T10:39:50.495Z,85.91
2022-11-19T10:44:49.291Z,86.50
2022-11-19T10:49:49.240Z,85.04
2022-11-19T10:54:49.189Z,85.98
2022-11-19T10:59:49.121Z,85.77
2022-11-19T11:04:49.156Z,86.04
2022-11-19T11:09:49.101Z,85.11
2022-11-19T11:14:49.004Z,85.80
2022-11-19T11:19:48.916Z,83.99
2022-11-19T11:24:48.886Z,81.95
2022-11-19T11:29:48.951Z,82.32
2022-11-19T11:34:48.748Z,82.29
2022-11-19T11:39:48.710Z,82.04
2022-11-19T11:44:48.619Z,82.28
2022-11-19T11:49:48.661Z,79.55
2022-11-19T11:54:48.561Z,81.52
2022-11-19T11:59:48.461Z,80.35
2022-11-19T12:04:48.602Z,78.16
2022-11-19T12:09:48.384Z,78.20
2022-11-19T12:14:48.502Z,78.06
2022-11-19T12:19:48.256Z,79.10
2022-11-19T12:24:48.273Z,78.78
2022-11-19T12:29:48.169Z,76.29
2022-11-19T12:34:48.092Z,77.61
2022-11-19T12:39:48.067Z,76.78
2022-11-19T12:44:47.984Z,76.78
2022-11-19T12:49:47.920Z,75.50
2022-11-19T12:54:47.866Z,75.33
2022-11-19T12:59:47.824Z,76.12
2022-11-19T13:04:47.870Z,74.29
2022-11-19T13:09:47.748Z,75.54
2022-11-19T13:14:52.003Z,76.99
2022-11-19T13:19:48.648Z,76.06
2022-11-19T13:24:47.628Z,76.85
2022-11-19T13:29:47.492Z,75.64
2022-11-19T13:34:47.480Z,73.25
2022-11-19T13:39:56.268Z,74.36
2022-11-19T13:44:47.412Z,74.19
2022-11-19T13:49:47.296Z,75.33
2022-11-19T13:54:47.381Z,73.57
2022-11-19T13:59:47.144Z,73.28
2022-11-19T14:04:50.477Z,74.19
2022-11-19T14:09:47.061Z,73.53
2022-11-19T14:14:46.985Z,74.43
2022-11-19T14:19:48.142Z,72.97
2022-11-19T14:24:46.969Z,74.67
2022-11-19T14:29:46.927Z,73.32
2022-11-19T14:34:46.879Z,72.80
2022-11-19T14:39:46.778Z,74.26
2022-11-19T14:44:46.705Z,74.26
2022-11-19T14:49:46.605Z,73.14
2022-11-19T14:54:46.937Z,74.60
2022-11-19T14:59:47.944Z,74.49
2022-11-19T15:04:46.640Z,74.49
2022-11-19T15:09:46.748Z,73.97
2022-11-19T15:14:46.724Z,75.40
2022-11-19T15:19:46.865Z,74.63
2022-11-19T15:24:46.411Z,72.86
2022-11-19T15:29:46.258Z,74.11
2022-11-19T15:35:09.730Z,74.11
2022-11-19T15:39:57.452Z,75.09
2022-11-19T15:44:46.261Z,75.09
2022-11-19T15:49:46.378Z,76.02
2022-11-19T15:54:45.905Z,75.29
2022-11-19T15:59:45.927Z,76.37
2022-11-19T16:04:46.236Z,75.57
2022-11-19T16:09:45.899Z,74.29
2022-11-19T16:14:45.732Z,76.12
2022-11-19T16:19:45.857Z,75.85
2022-11-19T16:24:48.706Z,75.74
2022-11-19T16:29:45.567Z,76.23
2022-11-19T16:34:45.549Z,75.71
2022-11-19T16:39:45.513Z,76.43
2022-11-19T16:44:48.908Z,76.75
2022-11-19T16:49:45.336Z,76.33
2022-11-19T16:54:45.239Z,76.54
2022-11-19T16:59:45.243Z,76.54
2022-11-19T17:04:45.256Z,76.43
2022-11-19T17:09:45.353Z,76.65
2022-11-19T17:14:45.143Z,76.06
2022-11-19T17:19:44.992Z,75.74
2022-11-19T17:24:45.009Z,76.78
2022-11-19T17:29:44.956Z,77.41
2022-11-19T17:34:45.260Z,78.34
2022-11-19T17:39:44.925Z,77.62
2022-11-19T17:44:44.773Z,77.79
2022-11-19T17:49:44.671Z,77.51
2022-11-19T17:54:44.732Z,77.62
2022-11-19T17:59:44.607Z,76.82
2022-11-19T18:04:44.641Z,77.76
2022-11-19T18:09:46.515Z,78.63
2022-11-19T18:14:44.371Z,79.15
2022-11-19T18:19:44.477Z,79.57
2022-11-19T18:24:44.280Z,79.36
2022-11-19T18:29:44.385Z,78.97
2022-11-19T18:34:44.190Z,79.29
2022-11-19T18:39:44.135Z,80.02
2022-11-19T18:44:44.081Z,80.96
2022-11-19T18:49:44.008Z,81.73
2022-11-19T18:54:44.143Z,82.81
2022-11-19T18:59:43.989Z,83.44
2022-11-19T19:04:48.294Z,83.58
2022-11-19T19:09:44.981Z,84.83
2022-11-19T19:14:43.719Z,84.66
2022-11-19T19:19:43.740Z,84.66
2022-11-19T19:24:47.053Z,84.59
2022-11-19T19:29:43.541Z,85.26
2022-11-19T19:34:43.632Z,85.58
2022-11-19T19:39:52.416Z,86.72
2022-11-19T19:44:43.408Z,86.55
2022-11-19T19:49:43.467Z,86.55
2022-11-19T19:54:43.438Z,87.08
2022-11-19T19:59:43.256Z,87.29
2022-11-19T20:04:43.229Z,87.81
2022-11-19T20:09:43.260Z,87.96
2022-11-19T20:14:43.090Z,88.27
2022-11-19T20:19:43.049Z,88.90
2022-11-19T20:24:42.996Z,88.90
2022-11-19T20:29:42.971Z,89.11
2022-11-19T20:34:42.888Z,89.22
2022-11-19T20:39:42.984Z,89.00
2022-11-19T20:44:42.929Z,89.25
2022-11-19T20:49:42.781Z,89.78
2022-11-19T20:54:42.702Z,89.47
2022-11-19T20:59:42.626Z,90.23
2022-11-19T21:04:42.826Z,90.20
2022-11-19T21:09:42.542Z,90.09
2022-11-19T21:14:42.466Z,89.98
2022-11-19T21:19:42.493Z,90.13
2022-11-19T21:24:42.462Z,90.34
2022-11-19T21:29:42.410Z,90.03
2022-11-19T21:34:42.325Z,90.13
2022-11-19T21:39:42.333Z,90.45
2022-11-19T21:44:42.166Z,90.97
2022-11-19T21:49:42.184Z,90.76
2022-11-19T21:54:42.157Z,90.45
2022-11-19T21:59:42.025Z,90.49
2022-11-19T22:04:43.350Z,90.80
2022-11-19T22:09:44.265Z,90.80
2022-11-19T22:14:42.355Z,91.01
2022-11-19T22:19:42.274Z,91.01
2022-11-19T22:24:41.974Z,90.91
2022-11-19T22:29:41.998Z,91.33
2022-11-19T22:34:41.615Z,91.39
2022-11-19T22:39:41.572Z,91.46
2022-11-19T22:44:41.644Z,91.56
2022-11-19T22:49:41.575Z,91.35
2022-11-19T22:54:42.046Z,91.31
2022-11-19T22:59:41.322Z,91.14
2022-11-19T23:04:41.458Z,91.03
2022-11-19T23:09:41.249Z,90.83
2022-11-19T23:14:41.212Z,90.83
2022-11-19T23:19:41.144Z,91.03
2022-11-19T23:24:41.100Z,91.14
2022-11-19T23:29:41.471Z,91.14
2022-11-19T23:34:41.005Z,91.03
2022-11-19T23:39:40.908Z,91.35
2022-11-19T23:44:40.866Z,91.41
2022-11-19T23:49:40.800Z,91.31
2022-11-19T23:54:40.871Z,91.09
2022-11-19T23:59:40.722Z,90.95
